GIA55 KIAD-RJAA
Flight info
| Callsign | GIA55 |
|---|---|
| Flight time | N/A |
| Altitude | 32000 |
| Route | MCRAY2 MCRAY Q178 DJB DCT FNT DCT TVC DCT AGLIN Q906 OMVEG Q919 YRL DCT 54N100W/N0486F340 58N110W 60N120W 61N130W DCT ALUSO NCA20 ELLAM/N0493F360 DCT NODLE R220 NAYLD/N0483F370 R220 NUZAN/N0493F380 R220 NOGAL/N0479F390 R220 NANAC/N0485F380 Y810 OLDIV Y809 SUPOK |
| Aircraft | B77W/H-SDE1E2E3FGHIJ2J3J4J5M1RWXY/LB1D1 |
Departure
| Time | 2026-05-07 10:51 |
|---|---|
| Airport | Washington Dulles International Airport (KIAD) |
Arrival
| Time | N/A |
|---|---|
| Airport | Narita International Airport (RJAA) |
| Time | Latitude | Longitude | Altitude | Speed | Heading |
|---|---|---|---|---|---|
| 2026-05-07 09:43 | 38.94934 | -77.45019 | 299 ft | 0 kts | 201° |
| 2026-05-07 10:36 | 38.94942 | -77.45015 | 298 ft | 2 kts | 201° |
| 2026-05-07 10:36 | 38.94956 | -77.45008 | 298 ft | 2 kts | 201° |
| 2026-05-07 10:36 | 38.94970 | -77.45001 | 298 ft | 2 kts | 211° |
| 2026-05-07 10:37 | 38.94982 | -77.44989 | 297 ft | 2 kts | 220° |
| 2026-05-07 10:37 | 38.94993 | -77.44977 | 297 ft | 2 kts | 227° |
| 2026-05-07 10:37 | 38.95002 | -77.44962 | 297 ft | 2 kts | 235° |
| 2026-05-07 10:37 | 38.95010 | -77.44946 | 297 ft | 2 kts | 243° |
| 2026-05-07 10:38 | 38.95016 | -77.44928 | 297 ft | 2 kts | 251° |
| 2026-05-07 10:38 | 38.95020 | -77.44910 | 297 ft | 2 kts | 259° |
| 2026-05-07 10:38 | 38.95022 | -77.44891 | 297 ft | 2 kts | 268° |
| 2026-05-07 10:38 | 38.95022 | -77.44882 | 297 ft | 0 kts | 270° |
| 2026-05-07 10:40 | 38.95022 | -77.44883 | 297 ft | 0 kts | 270° |
| 2026-05-07 10:41 | 38.95022 | -77.44887 | 297 ft | 1 kts | 270° |
| 2026-05-07 10:41 | 38.95022 | -77.44917 | 297 ft | 6 kts | 271° |
| 2026-05-07 10:41 | 38.95023 | -77.44978 | 297 ft | 6 kts | 275° |
| 2026-05-07 10:41 | 38.95027 | -77.45032 | 297 ft | 7 kts | 275° |
| 2026-05-07 10:42 | 38.95031 | -77.45098 | 297 ft | 6 kts | 273° |
| 2026-05-07 10:42 | 38.95032 | -77.45157 | 297 ft | 7 kts | 271° |
| 2026-05-07 10:42 | 38.95033 | -77.45247 | 296 ft | 12 kts | 271° |
| 2026-05-07 10:42 | 38.95034 | -77.45362 | 296 ft | 12 kts | 271° |
| 2026-05-07 10:43 | 38.95036 | -77.45470 | 294 ft | 11 kts | 271° |
| 2026-05-07 10:43 | 38.95026 | -77.45569 | 293 ft | 10 kts | 237° |
| 2026-05-07 10:43 | 38.94973 | -77.45596 | 294 ft | 7 kts | 174° |
| 2026-05-07 10:43 | 38.94933 | -77.45598 | 295 ft | 4 kts | 185° |
| 2026-05-07 10:44 | 38.94891 | -77.45602 | 295 ft | 8 kts | 184° |
| 2026-05-07 10:44 | 38.94836 | -77.45607 | 295 ft | 7 kts | 182° |
| 2026-05-07 10:44 | 38.94785 | -77.45609 | 295 ft | 7 kts | 181° |
| 2026-05-07 10:44 | 38.94744 | -77.45609 | 296 ft | 4 kts | 180° |
| 2026-05-07 10:45 | 38.94696 | -77.45609 | 296 ft | 9 kts | 180° |
| 2026-05-07 10:45 | 38.94613 | -77.45609 | 298 ft | 14 kts | 180° |
| 2026-05-07 10:45 | 38.94497 | -77.45610 | 298 ft | 17 kts | 180° |
| 2026-05-07 10:45 | 38.94385 | -77.45612 | 299 ft | 14 kts | 181° |
| 2026-05-07 10:46 | 38.94295 | -77.45614 | 300 ft | 11 kts | 181° |
| 2026-05-07 10:46 | 38.94215 | -77.45616 | 300 ft | 12 kts | 181° |
| 2026-05-07 10:46 | 38.94114 | -77.45618 | 300 ft | 16 kts | 181° |
| 2026-05-07 10:46 | 38.94004 | -77.45618 | 298 ft | 16 kts | 180° |
| 2026-05-07 10:47 | 38.93905 | -77.45618 | 297 ft | 14 kts | 181° |
| 2026-05-07 10:47 | 38.93816 | -77.45619 | 297 ft | 12 kts | 180° |
| 2026-05-07 10:47 | 38.93722 | -77.45612 | 295 ft | 11 kts | 159° |
| 2026-05-07 10:47 | 38.93662 | -77.45545 | 294 ft | 10 kts | 133° |
| 2026-05-07 10:48 | 38.93603 | -77.45496 | 293 ft | 9 kts | 178° |
| 2026-05-07 10:48 | 38.93539 | -77.45523 | 291 ft | 9 kts | 203° |
| 2026-05-07 10:48 | 38.93476 | -77.45555 | 290 ft | 10 kts | 201° |
| 2026-05-07 10:48 | 38.93407 | -77.45589 | 289 ft | 10 kts | 201° |
| 2026-05-07 10:49 | 38.93375 | -77.45635 | 288 ft | 6 kts | 269° |
| 2026-05-07 10:49 | 38.93385 | -77.45674 | 288 ft | 3 kts | 292° |
| 2026-05-07 10:49 | 38.93386 | -77.45679 | 288 ft | 0 kts | 292° |
| 2026-05-07 10:50 | 38.93412 | -77.45761 | 289 ft | 30 kts | 290° |
| 2026-05-07 10:50 | 38.93566 | -77.46265 | 295 ft | 92 kts | 293° |
| 2026-05-07 10:51 | 38.93858 | -77.47270 | 304 ft | 146 kts | 290° |
| 2026-05-07 10:51 | 38.94117 | -77.48148 | 330 ft | 175 kts | 295° |
| 2026-05-07 10:51 | 38.94522 | -77.49488 | 1232 ft | 150 kts | 294° |
| 2026-05-07 10:51 | 38.94820 | -77.50806 | 1526 ft | 164 kts | 295° |
| 2026-05-07 10:52 | 38.95316 | -77.52198 | 1797 ft | 172 kts | 306° |
| 2026-05-07 10:52 | 38.95986 | -77.53414 | 2262 ft | 169 kts | 316° |
| 2026-05-07 10:52 | 38.96876 | -77.54399 | 2680 ft | 169 kts | 331° |
| 2026-05-07 10:52 | 38.97947 | -77.55022 | 3129 ft | 169 kts | 338° |
| 2026-05-07 10:53 | 38.99082 | -77.55638 | 3339 ft | 185 kts | 337° |
| 2026-05-07 10:53 | 39.00312 | -77.56316 | 3496 ft | 206 kts | 336° |
| 2026-05-07 10:53 | 39.01691 | -77.57078 | 3741 ft | 225 kts | 336° |
| 2026-05-07 10:53 | 39.03170 | -77.57895 | 4028 ft | 244 kts | 336° |
| 2026-05-07 10:54 | 39.04718 | -77.58750 | 4531 ft | 252 kts | 334° |
| 2026-05-07 10:54 | 39.06337 | -77.59644 | 5175 ft | 257 kts | 334° |
| 2026-05-07 10:54 | 39.07910 | -77.60515 | 5725 ft | 262 kts | 332° |
| 2026-05-07 10:54 | 39.09569 | -77.61434 | 6313 ft | 268 kts | 332° |
| 2026-05-07 10:55 | 39.10519 | -77.61960 | 6650 ft | 270 kts | 332° |
| 2026-05-07 10:55 | 39.10829 | -77.62132 | 6763 ft | 270 kts | 332° |
| 2026-05-07 10:56 | 39.13614 | -77.63675 | 7726 ft | 277 kts | 330° |
| 2026-05-07 10:56 | 39.15388 | -77.64659 | 8356 ft | 279 kts | 330° |
| 2026-05-07 10:56 | 39.17165 | -77.65644 | 9012 ft | 280 kts | 328° |
| 2026-05-07 10:56 | 39.18967 | -77.66644 | 9627 ft | 283 kts | 328° |
| 2026-05-07 10:57 | 39.20779 | -77.67651 | 10261 ft | 286 kts | 328° |
| 2026-05-07 10:57 | 39.22645 | -77.68694 | 10556 ft | 302 kts | 328° |
| 2026-05-07 10:57 | 39.24646 | -77.69815 | 10816 ft | 319 kts | 328° |
| 2026-05-07 10:57 | 39.26711 | -77.70970 | 11109 ft | 335 kts | 328° |
| 2026-05-07 10:58 | 39.28898 | -77.72191 | 11464 ft | 350 kts | 329° |
| 2026-05-07 10:58 | 39.31177 | -77.73460 | 11808 ft | 364 kts | 329° |
| 2026-05-07 10:58 | 39.33551 | -77.74778 | 12258 ft | 376 kts | 329° |
| 2026-05-07 10:58 | 39.35960 | -77.76107 | 13076 ft | 376 kts | 329° |
| 2026-05-07 10:59 | 39.38365 | -77.77434 | 13824 ft | 378 kts | 329° |
| 2026-05-07 10:59 | 39.40765 | -77.78761 | 14479 ft | 381 kts | 328° |
| 2026-05-07 10:59 | 39.43204 | -77.80122 | 15184 ft | 383 kts | 327° |
| 2026-05-07 10:59 | 39.45657 | -77.81493 | 15894 ft | 385 kts | 327° |
| 2026-05-07 11:00 | 39.48113 | -77.82871 | 16593 ft | 386 kts | 325° |
| 2026-05-07 11:00 | 39.50429 | -77.84546 | 17114 ft | 381 kts | 316° |
| 2026-05-07 11:00 | 39.52470 | -77.86669 | 17671 ft | 374 kts | 307° |
| 2026-05-07 11:00 | 39.54177 | -77.89147 | 18317 ft | 366 kts | 298° |
| 2026-05-07 11:01 | 39.55520 | -77.91866 | 18988 ft | 359 kts | 290° |
| 2026-05-07 11:01 | 39.56540 | -77.94810 | 19623 ft | 355 kts | 285° |
| 2026-05-07 11:01 | 39.57441 | -77.97765 | 20425 ft | 352 kts | 284° |
| 2026-05-07 11:01 | 39.58305 | -78.00608 | 21163 ft | 349 kts | 284° |
| 2026-05-07 11:02 | 39.59192 | -78.03520 | 21743 ft | 350 kts | 283° |
| 2026-05-07 11:02 | 39.60075 | -78.06422 | 22280 ft | 351 kts | 283° |
| 2026-05-07 11:02 | 39.60970 | -78.09355 | 22834 ft | 352 kts | 282° |
| 2026-05-07 11:02 | 39.61874 | -78.12319 | 23370 ft | 353 kts | 283° |
| 2026-05-07 11:03 | 39.62778 | -78.15286 | 23878 ft | 355 kts | 282° |
| 2026-05-07 11:03 | 39.63678 | -78.18248 | 24318 ft | 358 kts | 283° |
| 2026-05-07 11:03 | 39.64592 | -78.21249 | 24841 ft | 358 kts | 283° |
| 2026-05-07 11:03 | 39.65502 | -78.24246 | 25323 ft | 360 kts | 282° |
| 2026-05-07 11:04 | 39.66420 | -78.27274 | 25731 ft | 363 kts | 282° |
| 2026-05-07 11:04 | 39.67345 | -78.30326 | 26118 ft | 367 kts | 282° |
| 2026-05-07 11:04 | 39.68282 | -78.33422 | 26542 ft | 369 kts | 282° |
| 2026-05-07 11:04 | 39.69212 | -78.36494 | 27031 ft | 370 kts | 281° |
| 2026-05-07 11:05 | 39.70154 | -78.39611 | 27474 ft | 371 kts | 282° |
| 2026-05-07 11:05 | 39.71094 | -78.42726 | 27892 ft | 373 kts | 282° |
| 2026-05-07 11:05 | 39.72037 | -78.45852 | 28311 ft | 375 kts | 281° |
| 2026-05-07 11:05 | 39.72988 | -78.49014 | 28671 ft | 378 kts | 281° |
| 2026-05-07 11:06 | 39.73935 | -78.52164 | 29063 ft | 379 kts | 282° |
| 2026-05-07 11:06 | 39.74889 | -78.55336 | 29480 ft | 380 kts | 281° |
| 2026-05-07 11:06 | 39.75847 | -78.58529 | 29877 ft | 381 kts | 282° |
| 2026-05-07 11:06 | 39.76812 | -78.61750 | 30244 ft | 383 kts | 281° |
| 2026-05-07 11:07 | 39.77780 | -78.64986 | 30601 ft | 384 kts | 281° |
| 2026-05-07 11:07 | 39.78739 | -78.68192 | 31056 ft | 383 kts | 281° |
| 2026-05-07 11:07 | 39.79691 | -78.71377 | 31517 ft | 382 kts | 281° |
| 2026-05-07 11:07 | 39.80638 | -78.74548 | 31946 ft | 380 kts | 281° |
| 2026-05-07 11:08 | 39.82549 | -78.80966 | 31996 ft | 378 kts | 281° |
| 2026-05-07 11:08 | 39.84442 | -78.87344 | 31987 ft | 380 kts | 281° |
| 2026-05-07 11:09 | 39.86333 | -78.93722 | 31979 ft | 378 kts | 281° |
| 2026-05-07 11:09 | 39.88208 | -79.00067 | 31974 ft | 376 kts | 281° |
| 2026-05-07 11:10 | 39.90080 | -79.06417 | 31970 ft | 377 kts | 281° |
| 2026-05-07 11:10 | 39.91959 | -79.12810 | 31976 ft | 377 kts | 282° |
| 2026-05-07 11:11 | 39.93823 | -79.19161 | 31969 ft | 377 kts | 281° |
| 2026-05-07 11:11 | 39.95697 | -79.25565 | 31977 ft | 378 kts | 281° |
| 2026-05-07 11:12 | 39.97551 | -79.31909 | 31978 ft | 375 kts | 281° |
| 2026-05-07 11:12 | 39.99408 | -79.38287 | 31977 ft | 377 kts | 281° |
| 2026-05-07 11:13 | 40.01813 | -79.44437 | 31982 ft | 385 kts | 290° |
| 2026-05-07 11:13 | 40.04666 | -79.49954 | 31983 ft | 392 kts | 291° |
| 2026-05-07 11:14 | 40.07817 | -79.56063 | 31981 ft | 393 kts | 290° |
| 2026-05-07 11:14 | 40.10773 | -79.61818 | 31980 ft | 392 kts | 291° |
| 2026-05-07 11:15 | 40.13819 | -79.67767 | 32010 ft | 393 kts | 291° |
| 2026-05-07 11:15 | 40.16824 | -79.73651 | 32008 ft | 394 kts | 290° |
| 2026-05-07 11:16 | 40.19783 | -79.79454 | 32009 ft | 390 kts | 291° |
| 2026-05-07 11:16 | 40.22749 | -79.85287 | 32005 ft | 392 kts | 291° |
| 2026-05-07 11:17 | 40.25761 | -79.91220 | 32001 ft | 391 kts | 291° |
| 2026-05-07 11:17 | 40.28766 | -79.97147 | 32004 ft | 390 kts | 290° |
| 2026-05-07 11:18 | 40.31746 | -80.03046 | 31998 ft | 393 kts | 290° |
| 2026-05-07 11:18 | 40.34733 | -80.08962 | 31995 ft | 392 kts | 290° |
| 2026-05-07 11:19 | 40.37711 | -80.14873 | 31992 ft | 392 kts | 290° |
| 2026-05-07 11:19 | 40.40671 | -80.20757 | 31983 ft | 392 kts | 290° |
| 2026-05-07 11:20 | 40.43655 | -80.26708 | 31991 ft | 396 kts | 291° |
| 2026-05-07 11:20 | 40.46500 | -80.32379 | 31983 ft | 391 kts | 291° |
| 2026-05-07 11:21 | 40.49604 | -80.38597 | 31985 ft | 398 kts | 291° |
| 2026-05-07 11:21 | 40.52176 | -80.43741 | 31981 ft | 393 kts | 290° |
| 2026-05-07 11:22 | 40.55621 | -80.50661 | 31982 ft | 396 kts | 291° |
| 2026-05-07 11:22 | 40.58322 | -80.56091 | 31974 ft | 395 kts | 290° |
| 2026-05-07 11:23 | 40.60831 | -80.61146 | 31982 ft | 394 kts | 291° |
| 2026-05-07 11:23 | 40.63585 | -80.66704 | 32006 ft | 394 kts | 289° |
| 2026-05-07 11:24 | 40.66324 | -80.72244 | 32007 ft | 395 kts | 290° |
| 2026-05-07 11:24 | 40.69061 | -80.77789 | 32009 ft | 394 kts | 290° |
| 2026-05-07 11:25 | 40.71690 | -80.83127 | 32011 ft | 396 kts | 291° |
| 2026-05-07 11:25 | 40.74663 | -80.89173 | 32000 ft | 397 kts | 290° |
| 2026-05-07 11:26 | 40.77652 | -80.95255 | 31998 ft | 392 kts | 291° |
| 2026-05-07 11:26 | 40.80592 | -81.01266 | 31996 ft | 399 kts | 291° |
| 2026-05-07 11:27 | 40.83553 | -81.07314 | 31998 ft | 394 kts | 290° |
| 2026-05-07 11:27 | 40.86499 | -81.13357 | 31997 ft | 397 kts | 291° |
| 2026-05-07 11:28 | 40.89471 | -81.19456 | 31997 ft | 397 kts | 291° |
| 2026-05-07 11:28 | 40.92447 | -81.25581 | 31993 ft | 400 kts | 291° |
| 2026-05-07 11:29 | 40.95424 | -81.31717 | 31994 ft | 400 kts | 291° |
| 2026-05-07 11:29 | 40.98408 | -81.37882 | 31997 ft | 402 kts | 291° |
| 2026-05-07 11:30 | 41.01357 | -81.43981 | 31990 ft | 400 kts | 291° |
| 2026-05-07 11:30 | 41.04345 | -81.50182 | 32001 ft | 404 kts | 291° |
| 2026-05-07 11:31 | 41.07335 | -81.56389 | 31970 ft | 402 kts | 291° |
| 2026-05-07 11:31 | 41.10330 | -81.62627 | 31992 ft | 402 kts | 291° |
| 2026-05-07 11:32 | 41.14836 | -81.72036 | 32005 ft | 403 kts | 290° |
| 2026-05-07 11:33 | 41.17837 | -81.78316 | 31992 ft | 405 kts | 290° |
| 2026-05-07 11:33 | 41.20858 | -81.84654 | 31989 ft | 405 kts | 291° |
| 2026-05-07 11:34 | 41.23861 | -81.90965 | 31997 ft | 407 kts | 291° |
| 2026-05-07 11:34 | 41.26866 | -81.97292 | 31997 ft | 407 kts | 292° |
| 2026-05-07 11:35 | 41.29831 | -82.03551 | 31993 ft | 408 kts | 291° |
| 2026-05-07 11:35 | 41.32844 | -82.09919 | 31991 ft | 406 kts | 291° |
| 2026-05-07 11:36 | 41.36077 | -82.16006 | 31985 ft | 424 kts | 302° |
| 2026-05-07 11:36 | 41.40752 | -82.21013 | 31997 ft | 435 kts | 311° |
| 2026-05-07 11:37 | 41.45284 | -82.25320 | 31987 ft | 447 kts | 311° |
| 2026-05-07 11:37 | 41.50565 | -82.30354 | 31991 ft | 448 kts | 311° |
| 2026-05-07 11:38 | 41.55373 | -82.34958 | 31987 ft | 448 kts | 311° |
| 2026-05-07 11:38 | 41.60158 | -82.39554 | 31991 ft | 448 kts | 312° |
| 2026-05-07 11:39 | 41.64722 | -82.43950 | 31989 ft | 446 kts | 312° |
| 2026-05-07 11:39 | 41.69610 | -82.48670 | 31990 ft | 447 kts | 312° |
| 2026-05-07 11:40 | 41.74472 | -82.53376 | 31987 ft | 449 kts | 312° |
| 2026-05-07 11:40 | 41.79458 | -82.58209 | 31982 ft | 450 kts | 312° |
| 2026-05-07 11:41 | 41.84525 | -82.63135 | 31988 ft | 452 kts | 313° |
| 2026-05-07 11:41 | 41.89225 | -82.67706 | 32001 ft | 451 kts | 312° |
| 2026-05-07 11:42 | 41.94278 | -82.72635 | 32003 ft | 451 kts | 312° |
| 2026-05-07 11:42 | 41.99308 | -82.77551 | 32001 ft | 451 kts | 312° |
| 2026-05-07 11:43 | 42.04211 | -82.82354 | 32003 ft | 453 kts | 313° |
| 2026-05-07 11:43 | 42.09287 | -82.87334 | 32002 ft | 454 kts | 313° |
| 2026-05-07 11:44 | 42.14368 | -82.92327 | 31989 ft | 453 kts | 313° |
| 2026-05-07 11:44 | 42.19460 | -82.97345 | 31992 ft | 455 kts | 313° |
| 2026-05-07 11:45 | 42.24583 | -83.02402 | 31993 ft | 454 kts | 313° |
| 2026-05-07 11:45 | 42.29546 | -83.07311 | 31987 ft | 455 kts | 314° |
| 2026-05-07 11:46 | 42.34644 | -83.12365 | 31981 ft | 456 kts | 314° |
| 2026-05-07 11:46 | 42.39710 | -83.17396 | 31984 ft | 454 kts | 314° |
| 2026-05-07 11:47 | 42.44763 | -83.22428 | 31978 ft | 458 kts | 314° |
| 2026-05-07 11:47 | 42.49759 | -83.27407 | 31981 ft | 456 kts | 314° |
| 2026-05-07 11:48 | 42.54718 | -83.32363 | 31977 ft | 456 kts | 314° |
| 2026-05-07 11:48 | 42.59524 | -83.37177 | 31977 ft | 457 kts | 314° |
| 2026-05-07 11:49 | 42.64995 | -83.42667 | 31976 ft | 457 kts | 314° |
| 2026-05-07 11:49 | 42.70102 | -83.47800 | 31971 ft | 456 kts | 314° |
| 2026-05-07 11:50 | 42.75192 | -83.52930 | 31967 ft | 457 kts | 314° |
| 2026-05-07 11:50 | 42.80286 | -83.58076 | 31969 ft | 459 kts | 315° |
| 2026-05-07 11:51 | 42.85419 | -83.63271 | 31968 ft | 461 kts | 315° |
| 2026-05-07 11:51 | 42.90553 | -83.68475 | 31986 ft | 459 kts | 314° |
| 2026-05-07 11:52 | 42.95639 | -83.73644 | 31990 ft | 459 kts | 314° |
| 2026-05-07 11:52 | 43.00776 | -83.78889 | 31996 ft | 461 kts | 314° |
| 2026-05-07 11:53 | 43.05885 | -83.84126 | 31989 ft | 460 kts | 314° |
| 2026-05-07 11:53 | 43.10984 | -83.89362 | 31987 ft | 461 kts | 315° |
| 2026-05-07 11:54 | 43.16106 | -83.94634 | 31988 ft | 462 kts | 315° |
| 2026-05-07 11:54 | 43.21263 | -83.99951 | 31985 ft | 460 kts | 315° |
| 2026-05-07 11:55 | 43.26332 | -84.05190 | 31987 ft | 461 kts | 315° |
| 2026-05-07 11:55 | 43.31446 | -84.10487 | 31985 ft | 461 kts | 315° |
| 2026-05-07 11:56 | 43.36600 | -84.15839 | 31984 ft | 464 kts | 315° |
| 2026-05-07 11:56 | 43.41706 | -84.21149 | 31980 ft | 465 kts | 315° |
| 2026-05-07 11:57 | 43.46869 | -84.26531 | 31981 ft | 464 kts | 315° |
| 2026-05-07 11:57 | 43.52006 | -84.31899 | 31980 ft | 466 kts | 316° |
| 2026-05-07 11:58 | 43.57132 | -84.37266 | 31976 ft | 464 kts | 316° |
| 2026-05-07 11:58 | 43.62281 | -84.42669 | 31977 ft | 466 kts | 316° |
| 2026-05-07 11:59 | 43.67416 | -84.48070 | 31972 ft | 466 kts | 316° |
| 2026-05-07 11:59 | 43.72536 | -84.53465 | 31975 ft | 466 kts | 316° |
| 2026-05-07 12:00 | 43.77702 | -84.58924 | 31976 ft | 468 kts | 316° |
| 2026-05-07 12:00 | 43.82843 | -84.64367 | 31963 ft | 468 kts | 316° |
| 2026-05-07 12:01 | 43.87997 | -84.69835 | 31970 ft | 468 kts | 316° |
| 2026-05-07 12:01 | 43.93152 | -84.75317 | 31968 ft | 468 kts | 316° |
| 2026-05-07 12:02 | 43.98317 | -84.80823 | 31965 ft | 470 kts | 316° |
| 2026-05-07 12:02 | 44.03473 | -84.86330 | 31961 ft | 469 kts | 316° |
| 2026-05-07 12:03 | 44.08639 | -84.91860 | 31972 ft | 469 kts | 316° |
| 2026-05-07 12:03 | 44.13804 | -84.97403 | 31970 ft | 469 kts | 316° |
| 2026-05-07 12:04 | 44.18958 | -85.02947 | 31965 ft | 470 kts | 316° |
| 2026-05-07 12:04 | 44.24108 | -85.08498 | 31964 ft | 470 kts | 317° |
| 2026-05-07 12:05 | 44.29261 | -85.14066 | 31962 ft | 471 kts | 317° |
| 2026-05-07 12:05 | 44.34420 | -85.19653 | 31960 ft | 470 kts | 317° |
| 2026-05-07 12:06 | 44.39602 | -85.25277 | 31961 ft | 471 kts | 317° |
| 2026-05-07 12:06 | 44.44750 | -85.30877 | 31957 ft | 471 kts | 317° |
| 2026-05-07 12:07 | 44.49889 | -85.36481 | 31959 ft | 471 kts | 317° |
| 2026-05-07 12:07 | 44.55073 | -85.42145 | 31950 ft | 471 kts | 317° |
| 2026-05-07 12:08 | 44.60229 | -85.47794 | 31945 ft | 473 kts | 318° |
| 2026-05-07 12:08 | 44.65377 | -85.53447 | 31953 ft | 473 kts | 318° |
| 2026-05-07 12:09 | 44.70656 | -85.58974 | 31947 ft | 476 kts | 321° |
| 2026-05-07 12:09 | 44.76055 | -85.64324 | 31954 ft | 476 kts | 321° |
| 2026-05-07 12:10 | 44.81471 | -85.69727 | 31953 ft | 476 kts | 320° |
| 2026-05-07 12:10 | 44.86857 | -85.75125 | 31958 ft | 476 kts | 320° |
| 2026-05-07 12:11 | 44.92242 | -85.80543 | 31962 ft | 477 kts | 320° |
| 2026-05-07 12:11 | 44.97613 | -85.85962 | 31960 ft | 476 kts | 320° |
| 2026-05-07 12:12 | 45.02981 | -85.91394 | 31960 ft | 477 kts | 321° |
| 2026-05-07 12:12 | 45.08347 | -85.96838 | 31954 ft | 477 kts | 321° |
| 2026-05-07 12:13 | 45.13759 | -86.02341 | 31951 ft | 478 kts | 321° |
| 2026-05-07 12:13 | 45.19089 | -86.07775 | 31952 ft | 477 kts | 321° |
| 2026-05-07 12:14 | 45.24461 | -86.13264 | 31953 ft | 477 kts | 321° |
| 2026-05-07 12:14 | 45.29841 | -86.18775 | 31952 ft | 477 kts | 321° |
| 2026-05-07 12:15 | 45.35220 | -86.24300 | 31953 ft | 479 kts | 321° |
| 2026-05-07 12:15 | 45.40582 | -86.29818 | 31953 ft | 478 kts | 321° |
| 2026-05-07 12:16 | 45.45953 | -86.35358 | 31956 ft | 479 kts | 321° |
| 2026-05-07 12:16 | 45.51222 | -86.40809 | 31956 ft | 479 kts | 321° |
| 2026-05-07 12:17 | 45.56591 | -86.46374 | 31952 ft | 479 kts | 321° |
| 2026-05-07 12:17 | 45.61946 | -86.51939 | 31956 ft | 479 kts | 322° |
| 2026-05-07 12:18 | 45.67292 | -86.57508 | 31948 ft | 480 kts | 322° |
| 2026-05-07 12:18 | 45.72704 | -86.63159 | 31954 ft | 481 kts | 322° |
| 2026-05-07 12:19 | 45.77945 | -86.68646 | 31959 ft | 481 kts | 321° |
| 2026-05-07 12:19 | 45.82735 | -86.73671 | 31950 ft | 481 kts | 321° |
| 2026-05-07 12:20 | 45.87572 | -86.78757 | 31951 ft | 482 kts | 321° |
| 2026-05-07 12:20 | 45.92683 | -86.84144 | 31949 ft | 482 kts | 321° |
| 2026-05-07 12:21 | 45.98080 | -86.89844 | 31947 ft | 481 kts | 321° |
| 2026-05-07 12:22 | 46.06092 | -86.98334 | 31946 ft | 482 kts | 322° |
| 2026-05-07 12:22 | 46.11435 | -87.04014 | 31938 ft | 482 kts | 322° |
| 2026-05-07 12:23 | 46.16833 | -87.09766 | 31927 ft | 482 kts | 322° |
| 2026-05-07 12:23 | 46.22190 | -87.15488 | 31927 ft | 482 kts | 322° |
| 2026-05-07 12:24 | 46.27544 | -87.21220 | 31924 ft | 482 kts | 322° |
| 2026-05-07 12:24 | 46.32734 | -87.26792 | 31926 ft | 481 kts | 322° |
| 2026-05-07 12:25 | 46.37243 | -87.31643 | 31925 ft | 482 kts | 322° |
| 2026-05-07 12:25 | 46.42549 | -87.37365 | 31927 ft | 482 kts | 322° |
| 2026-05-07 12:26 | 46.52799 | -87.48459 | 31916 ft | 483 kts | 322° |
| 2026-05-07 12:27 | 46.58129 | -87.54249 | 31912 ft | 482 kts | 322° |
| 2026-05-07 12:27 | 46.63126 | -87.59691 | 31905 ft | 482 kts | 322° |
| 2026-05-07 12:28 | 46.68425 | -87.65475 | 31913 ft | 482 kts | 321° |
| 2026-05-07 12:28 | 46.73414 | -87.70933 | 31906 ft | 481 kts | 321° |
| 2026-05-07 12:29 | 46.77877 | -87.75829 | 31910 ft | 481 kts | 321° |
| 2026-05-07 12:29 | 46.80742 | -87.78976 | 31912 ft | 481 kts | 321° |
| 2026-05-07 12:30 | 46.85191 | -87.83874 | 31907 ft | 481 kts | 321° |
| 2026-05-07 12:30 | 46.89572 | -87.88705 | 31912 ft | 481 kts | 321° |
| 2026-05-07 12:31 | 46.96912 | -87.96824 | 31918 ft | 482 kts | 321° |
| 2026-05-07 12:32 | 47.00846 | -88.01186 | 31926 ft | 483 kts | 321° |
| 2026-05-07 12:32 | 47.04703 | -88.05471 | 31927 ft | 482 kts | 321° |
| 2026-05-07 12:33 | 47.10904 | -88.12377 | 31930 ft | 482 kts | 321° |
| 2026-05-07 12:33 | 47.16176 | -88.18265 | 31926 ft | 481 kts | 321° |
| 2026-05-07 12:34 | 47.21483 | -88.24208 | 31924 ft | 481 kts | 321° |
| 2026-05-07 12:34 | 47.26782 | -88.30157 | 31901 ft | 482 kts | 321° |
| 2026-05-07 12:35 | 47.32076 | -88.36115 | 31904 ft | 482 kts | 321° |
| 2026-05-07 12:35 | 47.37417 | -88.42143 | 31911 ft | 482 kts | 321° |
| 2026-05-07 12:36 | 47.42708 | -88.48129 | 31910 ft | 482 kts | 322° |
| 2026-05-07 12:36 | 47.48014 | -88.54148 | 31923 ft | 483 kts | 322° |
| 2026-05-07 12:37 | 47.53295 | -88.60154 | 31913 ft | 483 kts | 322° |
| 2026-05-07 12:37 | 47.58576 | -88.66177 | 31915 ft | 482 kts | 321° |
| 2026-05-07 12:38 | 47.63892 | -88.72253 | 31923 ft | 482 kts | 321° |
| 2026-05-07 12:38 | 47.69172 | -88.78306 | 31908 ft | 481 kts | 321° |
| 2026-05-07 12:39 | 47.74453 | -88.84377 | 31916 ft | 481 kts | 321° |
| 2026-05-07 12:39 | 47.79725 | -88.90452 | 31908 ft | 481 kts | 321° |
| 2026-05-07 12:40 | 47.85001 | -88.96547 | 31913 ft | 482 kts | 321° |
| 2026-05-07 12:40 | 47.90238 | -89.02615 | 31905 ft | 482 kts | 321° |
| 2026-05-07 12:41 | 47.95502 | -89.08730 | 31912 ft | 482 kts | 321° |
| 2026-05-07 12:41 | 48.00752 | -89.14843 | 31917 ft | 481 kts | 321° |
| 2026-05-07 12:42 | 48.06050 | -89.21030 | 31918 ft | 481 kts | 321° |
| 2026-05-07 12:42 | 48.11283 | -89.27156 | 31915 ft | 482 kts | 321° |
| 2026-05-07 12:43 | 48.16557 | -89.33347 | 31911 ft | 481 kts | 321° |
| 2026-05-07 12:43 | 48.21807 | -89.39527 | 31904 ft | 481 kts | 321° |
| 2026-05-07 12:44 | 48.27016 | -89.45722 | 31901 ft | 480 kts | 319° |
| 2026-05-07 12:44 | 48.32113 | -89.52184 | 31889 ft | 481 kts | 319° |
| 2026-05-07 12:45 | 48.37180 | -89.58630 | 31878 ft | 481 kts | 319° |
| 2026-05-07 12:45 | 48.42271 | -89.65109 | 31872 ft | 481 kts | 318° |
| 2026-05-07 12:46 | 48.47346 | -89.71581 | 31864 ft | 480 kts | 318° |
| 2026-05-07 12:46 | 48.52433 | -89.78081 | 31852 ft | 480 kts | 318° |
| 2026-05-07 12:47 | 48.57523 | -89.84599 | 31843 ft | 480 kts | 318° |
| 2026-05-07 12:47 | 48.62575 | -89.91087 | 31850 ft | 480 kts | 318° |
| 2026-05-07 12:48 | 48.67637 | -89.97604 | 31839 ft | 480 kts | 318° |
| 2026-05-07 12:48 | 48.72707 | -90.04150 | 31839 ft | 480 kts | 318° |
| 2026-05-07 12:49 | 48.77774 | -90.10709 | 31843 ft | 480 kts | 318° |
| 2026-05-07 12:49 | 48.82824 | -90.17263 | 31849 ft | 481 kts | 318° |
| 2026-05-07 12:50 | 48.87906 | -90.23878 | 31846 ft | 481 kts | 318° |
| 2026-05-07 12:50 | 48.92944 | -90.30454 | 31848 ft | 481 kts | 318° |
| 2026-05-07 12:51 | 48.98000 | -90.37071 | 31852 ft | 480 kts | 318° |
| 2026-05-07 12:51 | 49.03073 | -90.43729 | 31840 ft | 480 kts | 318° |
| 2026-05-07 12:52 | 49.08087 | -90.50328 | 31839 ft | 481 kts | 318° |
| 2026-05-07 12:52 | 49.13120 | -90.56970 | 31827 ft | 479 kts | 318° |
| 2026-05-07 12:53 | 49.18142 | -90.63618 | 31841 ft | 480 kts | 318° |
| 2026-05-07 12:53 | 49.23195 | -90.70324 | 31831 ft | 480 kts | 317° |
| 2026-05-07 12:54 | 49.28198 | -90.76982 | 31827 ft | 481 kts | 317° |
| 2026-05-07 12:54 | 49.33216 | -90.83679 | 31819 ft | 481 kts | 317° |
| 2026-05-07 12:55 | 49.38264 | -90.90436 | 31819 ft | 482 kts | 317° |
| 2026-05-07 12:55 | 49.43286 | -90.97176 | 31835 ft | 481 kts | 317° |
| 2026-05-07 12:56 | 49.48299 | -91.03923 | 31845 ft | 482 kts | 317° |
| 2026-05-07 12:56 | 49.53302 | -91.10676 | 31828 ft | 482 kts | 317° |
| 2026-05-07 12:57 | 49.58348 | -91.17507 | 31842 ft | 482 kts | 317° |
| 2026-05-07 12:57 | 49.63341 | -91.24286 | 31844 ft | 481 kts | 317° |
| 2026-05-07 12:58 | 49.68375 | -91.31139 | 31843 ft | 482 kts | 317° |
| 2026-05-07 12:58 | 49.73370 | -91.37959 | 31831 ft | 482 kts | 318° |
| 2026-05-07 12:59 | 49.78353 | -91.44782 | 31832 ft | 483 kts | 318° |
| 2026-05-07 12:59 | 49.83375 | -91.51678 | 31827 ft | 483 kts | 318° |
| 2026-05-07 13:00 | 49.88364 | -91.58547 | 31838 ft | 484 kts | 318° |
| 2026-05-07 13:00 | 49.93368 | -91.65459 | 31847 ft | 484 kts | 317° |
| 2026-05-07 13:01 | 49.98391 | -91.72417 | 31856 ft | 483 kts | 317° |
| 2026-05-07 13:01 | 50.03356 | -91.79314 | 31860 ft | 483 kts | 317° |
| 2026-05-07 13:02 | 50.08344 | -91.86262 | 31864 ft | 484 kts | 317° |
| 2026-05-07 13:02 | 50.12794 | -91.93173 | 31872 ft | 484 kts | 310° |
| 2026-05-07 13:03 | 50.17329 | -92.01505 | 31859 ft | 483 kts | 310° |
| 2026-05-07 13:03 | 50.21634 | -92.09476 | 31864 ft | 483 kts | 310° |
| 2026-05-07 13:04 | 50.25965 | -92.17525 | 31855 ft | 483 kts | 310° |
| 2026-05-07 13:04 | 50.30238 | -92.25494 | 31847 ft | 482 kts | 310° |
| 2026-05-07 13:05 | 50.34532 | -92.33528 | 31843 ft | 482 kts | 310° |
| 2026-05-07 13:05 | 50.38804 | -92.41547 | 31852 ft | 482 kts | 310° |
| 2026-05-07 13:06 | 50.43084 | -92.49607 | 31847 ft | 482 kts | 311° |
| 2026-05-07 13:06 | 50.47339 | -92.57648 | 31846 ft | 482 kts | 310° |
| 2026-05-07 13:07 | 50.51569 | -92.65852 | 31849 ft | 482 kts | 309° |
| 2026-05-07 13:07 | 50.55753 | -92.74007 | 31853 ft | 482 kts | 310° |
| 2026-05-07 13:08 | 50.59932 | -92.82172 | 31850 ft | 482 kts | 310° |
| 2026-05-07 13:08 | 50.64112 | -92.90363 | 31855 ft | 482 kts | 310° |
| 2026-05-07 13:09 | 50.68279 | -92.98553 | 31851 ft | 482 kts | 310° |
| 2026-05-07 13:09 | 50.72460 | -93.06793 | 31859 ft | 481 kts | 310° |
| 2026-05-07 13:10 | 50.76605 | -93.14989 | 31856 ft | 481 kts | 310° |
| 2026-05-07 13:10 | 50.80745 | -93.23201 | 31860 ft | 482 kts | 310° |
| 2026-05-07 13:11 | 50.84901 | -93.31471 | 31855 ft | 482 kts | 310° |
| 2026-05-07 13:11 | 50.89068 | -93.39787 | 31861 ft | 482 kts | 310° |
| 2026-05-07 13:12 | 50.93197 | -93.48057 | 31860 ft | 481 kts | 310° |
| 2026-05-07 13:12 | 50.97328 | -93.56355 | 31864 ft | 481 kts | 310° |
| 2026-05-07 13:13 | 51.01437 | -93.64637 | 31877 ft | 480 kts | 311° |
| 2026-05-07 13:13 | 51.05175 | -93.72193 | 31882 ft | 480 kts | 310° |
| 2026-05-07 13:14 | 51.09301 | -93.80385 | 31870 ft | 478 kts | 312° |
| 2026-05-07 13:14 | 51.13410 | -93.88123 | 31885 ft | 479 kts | 312° |